Time;durP1;ratioP1;P1;durP2;ratioP2;P2;SDS_P1;SDS_P2;PMS_P1;PMS_P2;Temp;Humidity;BMP_temperature;BMP_pressure;BME280_temperature;BME280_humidity;BME280_pressure;Samples;Min_cycle;Max_cycle;Signal;HPM_P1;HPM_P2
2021/12/04 00:00:13;;;;;;;36.13;27.27;;;5.50;99.90;;;;;;5131581;28;20024;-76
2021/12/04 00:02:39;;;;;;;37.63;26.00;;;5.50;99.90;;;;;;5130836;28;20030;-77
2021/12/04 00:05:06;;;;;;;35.17;26.65;;;5.60;99.90;;;;;;5110695;28;20042;-77
2021/12/04 00:07:33;;;;;;;37.55;26.65;;;5.60;99.90;;;;;;5129040;28;20041;-77
2021/12/04 00:10:03;;;;;;;39.63;27.80;;;5.60;99.90;;;;;;5131594;28;20057;-77
2021/12/04 00:12:31;;;;;;;38.15;28.10;;;5.50;99.90;;;;;;5131074;28;20016;-77
2021/12/04 00:14:57;;;;;;;40.92;28.20;;;5.50;99.90;;;;;;5133399;28;20008;-77
2021/12/04 00:17:23;;;;;;;39.03;28.20;;;5.50;99.90;;;;;;5135193;28;20111;-78
2021/12/04 00:19:48;;;;;;;41.20;28.92;;;5.50;99.90;;;;;;5135123;28;20031;-79
2021/12/04 00:22:15;;;;;;;41.78;30.65;;;5.50;99.90;;;;;;5123096;28;20030;-77
2021/12/04 00:24:40;;;;;;;41.65;29.75;;;5.50;99.90;;;;;;5094224;28;20028;-76
2021/12/04 00:27:06;;;;;;;45.38;29.63;;;5.50;99.90;;;;;;5113617;28;20306;-76
2021/12/04 00:29:32;;;;;;;47.72;32.08;;;5.50;99.90;;;;;;5114501;28;20084;-77
2021/12/04 00:32:01;;;;;;;45.15;31.42;;;5.50;99.90;;;;;;5094774;28;20030;-78
2021/12/04 00:34:28;;;;;;;44.28;32.35;;;5.50;99.90;;;;;;5112088;28;20018;-78
2021/12/04 00:50:37;;;;;;;58.97;37.97;;;5.50;99.90;;;;;;5117033;28;20035;-76
2021/12/04 00:53:02;;;;;;;57.35;37.67;;;5.50;99.90;;;;;;5098358;28;20032;-76
2021/12/04 00:55:28;;;;;;;61.33;39.75;;;5.50;99.90;;;;;;5116271;28;20052;-75
2021/12/04 00:57:54;;;;;;;57.95;37.70;;;5.50;99.90;;;;;;5116284;28;20476;-75
2021/12/04 01:00:20;;;;;;;59.63;39.67;;;5.60;99.90;;;;;;5105819;28;20034;-76
2021/12/04 01:02:46;;;;;;;60.17;38.08;;;5.50;99.90;;;;;;5098867;28;20049;-77
2021/12/04 01:05:12;;;;;;;58.20;39.40;;;5.50;99.90;;;;;;5122500;28;20028;-77
2021/12/04 01:07:38;;;;;;;59.45;38.28;;;5.50;99.90;;;;;;5120179;28;20103;-75
2021/12/04 01:10:06;;;;;;;58.90;37.33;;;5.50;99.90;;;;;;5116861;28;20396;-76
2021/12/04 01:12:32;;;;;;;59.22;38.28;;;5.50;99.90;;;;;;5116340;28;20012;-75
2021/12/04 01:14:58;;;;;;;60.15;38.95;;;5.60;99.90;;;;;;5116488;28;20020;-78
2021/12/04 01:17:24;;;;;;;58.92;38.60;;;5.60;99.90;;;;;;5097805;28;20026;-77
2021/12/04 01:19:50;;;;;;;59.13;38.85;;;5.50;99.90;;;;;;5116235;28;20023;-75
2021/12/04 01:22:19;;;;;;;58.70;39.17;;;5.50;99.90;;;;;;5097770;28;20036;-75
2021/12/04 01:24:45;;;;;;;63.95;39.30;;;5.50;99.90;;;;;;5116545;28;20073;-76
2021/12/04 01:27:13;;;;;;;54.03;36.10;;;5.50;99.90;;;;;;5116206;28;20019;-76
2021/12/04 01:29:39;;;;;;;55.13;36.72;;;5.50;99.90;;;;;;5116388;28;20012;-78
2021/12/04 01:32:07;;;;;;;51.35;34.53;;;5.50;99.90;;;;;;5116482;28;20073;-76
2021/12/04 01:34:34;;;;;;;52.60;34.05;;;5.50;99.90;;;;;;5116017;28;20464;-76
2021/12/04 01:37:00;;;;;;;56.05;34.03;;;5.50;99.90;;;;;;5115834;28;20110;-76
2021/12/04 01:39:26;;;;;;;55.55;35.55;;;5.50;99.90;;;;;;5116106;28;20106;-74
2021/12/04 01:41:51;;;;;;;53.90;34.60;;;5.50;99.90;;;;;;5101221;28;20055;-77
2021/12/04 01:44:17;;;;;;;50.78;33.25;;;5.40;99.90;;;;;;5123699;28;20019;-75
2021/12/04 01:46:43;;;;;;;52.60;32.05;;;5.50;99.90;;;;;;5123143;28;20031;-76
2021/12/04 01:49:08;;;;;;;51.60;32.70;;;5.50;99.90;;;;;;5124243;28;20100;-75
2021/12/04 01:51:34;;;;;;;48.10;31.98;;;5.60;99.90;;;;;;5127606;28;20062;-76
2021/12/04 01:53:59;;;;;;;47.17;32.25;;;5.60;99.90;;;;;;5115697;28;20365;-77
2021/12/04 01:56:33;;;;;;;48.90;32.05;;;5.60;99.90;;;;;;5114449;28;20063;-79
2021/12/04 01:59:00;;;;;;;51.08;32.60;;;5.50;99.90;;;;;;5114464;28;20027;-77
2021/12/04 02:01:26;;;;;;;53.65;34.63;;;5.50;99.90;;;;;;5116316;28;20040;-75
2021/12/04 02:03:52;;;;;;;55.53;33.63;;;5.50;99.90;;;;;;5116040;28;20029;-77
2021/12/04 02:06:18;;;;;;;47.75;31.13;;;5.50;99.90;;;;;;5096198;28;20103;-77
2021/12/04 02:08:44;;;;;;;48.85;32.25;;;5.50;99.90;;;;;;5118353;28;20468;-78
2021/12/04 02:11:11;;;;;;;45.72;30.52;;;5.50;99.90;;;;;;5120054;28;20149;-78
2021/12/04 02:13:36;;;;;;;46.25;31.70;;;5.60;99.90;;;;;;5116742;28;20051;-77
2021/12/04 02:16:12;;;;;;;45.92;30.70;;;5.50;99.90;;;;;;5096493;28;20077;-76
2021/12/04 02:18:38;;;;;;;50.63;30.67;;;5.60;99.90;;;;;;5115124;28;20030;-77
2021/12/04 02:21:04;;;;;;;51.88;32.13;;;5.50;99.90;;;;;;5114582;28;20118;-76
2021/12/04 02:23:29;;;;;;;51.53;31.85;;;5.50;99.90;;;;;;5096406;28;20031;-77
2021/12/04 02:25:55;;;;;;;50.25;29.92;;;5.50;99.90;;;;;;5115848;28;20027;-76
2021/12/04 02:28:20;;;;;;;52.42;30.77;;;5.50;99.90;;;;;;5100585;28;20028;-75
2021/12/04 02:30:48;;;;;;;47.13;30.63;;;5.50;99.90;;;;;;5117754;28;20047;-76
2021/12/04 02:33:16;;;;;;;46.42;30.55;;;5.40;99.90;;;;;;5114164;28;20106;-77
2021/12/04 02:35:45;;;;;;;53.90;31.85;;;5.40;99.90;;;;;;5113381;28;20476;-77
2021/12/04 02:38:11;;;;;;;49.42;29.38;;;5.50;99.90;;;;;;5095509;28;20452;-77
2021/12/04 02:40:36;;;;;;;45.38;28.15;;;5.50;99.90;;;;;;5113765;28;20047;-76
2021/12/04 02:43:03;;;;;;;51.10;30.10;;;5.50;99.90;;;;;;5113609;28;20063;-77
2021/12/04 02:45:28;;;;;;;47.03;28.83;;;5.50;99.90;;;;;;5113476;28;20026;-76
2021/12/04 02:47:54;;;;;;;45.88;28.42;;;5.50;99.90;;;;;;5114402;28;20028;-77
2021/12/04 02:50:20;;;;;;;45.47;28.75;;;5.50;99.90;;;;;;5114685;28;20100;-77
2021/12/04 02:52:45;;;;;;;47.47;29.50;;;5.60;99.90;;;;;;5125163;22;20107;-79
2021/12/04 02:55:11;;;;;;;44.92;28.95;;;5.50;99.90;;;;;;5082616;28;20089;-79
2021/12/04 02:57:43;;;;;;;51.25;29.13;;;5.60;99.90;;;;;;5100755;28;20020;-79
2021/12/04 03:00:12;;;;;;;48.47;29.95;;;5.60;99.90;;;;;;5081786;28;20040;-79
2021/12/04 03:02:38;;;;;;;46.67;29.98;;;5.60;99.90;;;;;;5100366;28;20024;-79
2021/12/04 03:05:07;;;;;;;46.13;29.17;;;5.60;99.90;;;;;;5100953;28;20024;-80
2021/12/04 03:07:33;;;;;;;45.08;29.02;;;5.70;99.90;;;;;;5100145;28;20031;-80
2021/12/04 03:09:59;;;;;;;50.67;29.73;;;5.70;99.90;;;;;;5086712;28;20428;-80
2021/12/04 03:12:25;;;;;;;45.10;29.45;;;5.60;99.90;;;;;;5104855;28;20044;-80
2021/12/04 03:14:52;;;;;;;47.60;30.25;;;5.60;99.90;;;;;;5102133;28;20099;-80
2021/12/04 03:17:20;;;;;;;48.90;30.88;;;5.60;99.90;;;;;;5082937;28;20088;-80
2021/12/04 03:19:49;;;;;;;48.47;30.50;;;5.60;99.90;;;;;;5102383;28;20028;-82
2021/12/04 03:22:15;;;;;;;47.53;30.70;;;5.60;99.90;;;;;;5100787;28;20020;-80
2021/12/04 03:24:42;;;;;;;52.15;32.50;;;5.60;99.90;;;;;;5066252;28;20028;-79
2021/12/04 03:27:08;;;;;;;53.78;33.97;;;5.60;99.90;;;;;;5082484;28;20511;-79
2021/12/04 03:29:39;;;;;;;52.17;34.05;;;5.50;99.90;;;;;;5103151;28;20099;-80
2021/12/04 03:32:18;;;;;;;52.45;33.63;;;5.50;99.90;;;;;;5096838;28;20055;-80
2021/12/04 03:42:57;;;;;;;54.00;34.15;;;5.50;99.90;;;;;;5102183;28;20058;-80
2021/12/04 03:45:23;;;;;;;57.58;34.15;;;5.50;99.90;;;;;;5083471;28;20036;-78
2021/12/04 03:47:51;;;;;;;55.30;34.72;;;5.60;99.90;;;;;;5101374;28;20061;-79
2021/12/04 03:50:16;;;;;;;57.85;35.67;;;5.60;99.90;;;;;;5104477;28;20102;-80
2021/12/04 03:52:42;;;;;;;61.85;36.08;;;5.60;99.90;;;;;;5083746;28;20063;-81
2021/12/04 03:55:09;;;;;;;60.40;36.65;;;5.70;99.90;;;;;;5084724;28;20050;-81
2021/12/04 03:57:36;;;;;;;58.30;36.25;;;5.70;99.90;;;;;;5104673;28;20171;-80
2021/12/04 04:00:04;;;;;;;65.50;36.72;;;5.60;99.90;;;;;;5106622;28;20024;-81
2021/12/04 04:02:30;;;;;;;62.05;35.70;;;5.70;99.90;;;;;;5103362;28;20127;-79
2021/12/04 04:04:55;;;;;;;65.22;37.88;;;5.60;99.90;;;;;;5088971;28;20499;-79
2021/12/04 04:07:22;;;;;;;62.88;37.70;;;5.60;99.90;;;;;;5095676;28;20035;-79
2021/12/04 04:09:47;;;;;;;66.45;38.20;;;5.60;99.90;;;;;;5108967;28;20024;-81
2021/12/04 04:12:13;;;;;;;67.45;37.90;;;5.50;99.90;;;;;;5089223;28;20088;-80
2021/12/04 04:14:39;;;;;;;68.55;39.17;;;5.60;99.90;;;;;;5098745;28;20035;-79
2021/12/04 04:17:05;;;;;;;70.65;39.53;;;5.60;99.90;;;;;;5115781;28;20028;-78
2021/12/04 04:19:31;;;;;;;70.15;40.95;;;5.70;99.90;;;;;;5099767;28;20024;-85
2021/12/04 04:21:58;;;;;;;66.95;40.67;;;5.60;99.90;;;;;;5114747;28;20032;-82
2021/12/04 04:24:29;;;;;;;71.53;42.45;;;5.60;99.90;;;;;;5099173;28;20035;-82
2021/12/04 04:26:54;;;;;;;75.43;43.05;;;5.60;99.90;;;;;;5117401;28;20032;-82
2021/12/04 04:29:21;;;;;;;67.80;41.25;;;5.60;99.90;;;;;;5112421;28;20048;-82
2021/12/04 04:31:48;;;;;;;78.45;42.78;;;5.50;99.90;;;;;;5112257;28;20108;-81
2021/12/04 04:34:26;;;;;;;76.60;43.15;;;5.50;99.90;;;;;;5087311;28;20389;-82
2021/12/04 04:37:14;;;;;;;75.57;43.92;;;5.50;99.90;;;;;;5083698;28;20024;-80
2021/12/04 04:40:20;;;;;;;83.65;44.90;;;5.50;99.90;;;;;;5100607;28;20099;-81
2021/12/04 05:02:26;;;;;;;80.55;45.88;;;5.40;99.90;;;;;;5115526;28;20278;-78
2021/12/04 05:12:50;;;;;;;83.28;45.75;;;5.50;99.90;;;;;;5100236;28;20077;-81
2021/12/04 05:15:34;;;;;;;78.97;44.78;;;5.40;99.90;;;;;;5100152;28;20028;-82
2021/12/04 05:20:54;;;;;;;;;;;5.50;99.90;;;;;;5100868;28;20043;-81
2021/12/04 05:23:23;;;;;;;89.40;47.63;;;5.40;99.90;;;;;;5100462;28;20231;-80
2021/12/04 05:25:50;;;;;;;93.85;47.72;;;5.40;99.90;;;;;;5082041;28;20024;-79
2021/12/04 05:28:16;;;;;;;85.18;48.47;;;5.40;99.90;;;;;;5100332;28;20028;-81
2021/12/04 05:30:41;;;;;;;80.75;47.22;;;5.40;99.90;;;;;;5101752;28;20074;-81
2021/12/04 05:33:07;;;;;;;81.53;45.08;;;5.50;99.90;;;;;;5102599;28;20020;-82
2021/12/04 05:35:33;;;;;;;83.22;46.88;;;5.50;99.90;;;;;;5105390;28;20020;-80
2021/12/04 05:37:59;;;;;;;78.13;46.15;;;5.50;99.90;;;;;;5087885;28;20028;-81
2021/12/04 05:40:24;;;;;;;85.90;47.03;;;5.50;99.90;;;;;;5106786;28;20035;-81
2021/12/04 05:42:50;;;;;;;81.55;46.58;;;5.40;99.90;;;;;;5107045;28;20035;-81
2021/12/04 05:45:23;;;;;;;75.43;44.40;;;5.40;99.90;;;;;;5104870;28;20073;-81
2021/12/04 05:48:02;;;;;;;79.78;44.03;;;5.40;99.90;;;;;;5105608;28;20101;-83
2021/12/04 05:53:19;;;;;;;77.15;45.33;;;5.50;99.90;;;;;;5106334;28;20040;-82
2021/12/04 05:55:55;;;;;;;69.97;42.95;;;5.50;99.90;;;;;;5107909;28;20039;-82
2021/12/04 05:58:29;;;;;;;82.45;45.25;;;5.50;99.90;;;;;;5107027;28;20020;-81
2021/12/04 06:00:57;;;;;;;74.82;43.22;;;5.50;99.90;;;;;;5106418;28;20048;-82
2021/12/04 06:03:24;;;;;;;84.47;45.13;;;5.50;99.90;;;;;;5106063;28;20026;-82
2021/12/04 06:05:50;;;;;;;79.65;45.67;;;5.40;99.90;;;;;;5104632;28;20046;-80
2021/12/04 06:08:16;;;;;;;80.60;45.40;;;5.40;99.90;;;;;;5087467;28;20024;-81
2021/12/04 06:10:42;;;;;;;79.53;44.40;;;5.40;99.90;;;;;;5105851;28;20036;-81
2021/12/04 06:13:08;;;;;;;77.45;44.92;;;5.40;99.90;;;;;;5086564;28;20400;-82
2021/12/04 06:15:33;;;;;;;82.18;46.28;;;5.40;99.90;;;;;;5106728;28;20465;-81
2021/12/04 06:17:59;;;;;;;77.38;43.45;;;5.50;99.90;;;;;;5097976;28;20092;-82
2021/12/04 06:23:09;;;;;;;80.65;44.35;;;5.40;99.90;;;;;;5116260;28;20023;-84
2021/12/04 06:25:35;;;;;;;79.13;42.95;;;5.40;99.90;;;;;;5119622;28;20020;-81
2021/12/04 06:28:01;;;;;;;86.82;45.05;;;5.40;99.90;;;;;;5119420;28;20046;-82
2021/12/04 06:30:27;;;;;;;77.80;42.70;;;5.30;99.90;;;;;;5101915;28;20012;-81
2021/12/04 06:32:54;;;;;;;82.05;43.33;;;5.40;99.90;;;;;;5118797;28;20047;-79
2021/12/04 06:35:23;;;;;;;81.93;44.35;;;5.30;99.90;;;;;;5117151;28;20024;-84
2021/12/04 06:37:49;;;;;;;86.68;45.90;;;5.30;99.90;;;;;;5115708;28;20031;-81
2021/12/04 06:40:17;;;;;;;79.30;44.53;;;5.20;99.90;;;;;;5098075;28;20091;-78
2021/12/04 06:42:44;;;;;;;76.43;42.00;;;5.30;99.90;;;;;;5113473;28;20024;-81
2021/12/04 06:45:10;;;;;;;69.40;41.25;;;5.30;99.90;;;;;;5114700;28;20019;-79
2021/12/04 06:47:38;;;;;;;75.80;40.83;;;5.40;99.90;;;;;;5116154;28;20039;-82
2021/12/04 06:50:09;;;;;;;73.97;41.03;;;5.40;99.90;;;;;;5116019;28;20023;-82
2021/12/04 06:52:36;;;;;;;81.70;43.08;;;5.40;99.90;;;;;;5099963;28;20040;-81
2021/12/04 06:55:03;;;;;;;75.40;40.50;;;5.40;99.90;;;;;;5119221;28;20030;-85
2021/12/04 06:57:31;;;;;;;69.32;40.53;;;5.40;99.90;;;;;;5089731;28;20076;-80
2021/12/04 06:59:57;;;;;;;67.15;39.15;;;5.50;99.90;;;;;;5087136;28;20016;-80
2021/12/04 07:02:23;;;;;;;69.95;39.90;;;5.50;99.90;;;;;;5102307;28;20039;-81
2021/12/04 07:04:49;;;;;;;65.10;37.47;;;5.50;99.90;;;;;;5087535;28;20016;-80
2021/12/04 07:07:15;;;;;;;61.80;36.63;;;5.50;99.90;;;;;;5096371;28;20012;-80
2021/12/04 07:09:41;;;;;;;67.13;38.53;;;5.50;99.90;;;;;;5098769;28;20107;-82
2021/12/04 07:12:09;;;;;;;64.80;37.08;;;5.60;99.90;;;;;;5111944;28;20031;-77
2021/12/04 07:14:34;;;;;;;68.90;37.33;;;5.60;99.90;;;;;;5099651;28;20020;-79
2021/12/04 07:17:03;;;;;;;60.75;36.55;;;5.50;99.90;;;;;;5098838;28;20108;-77
2021/12/04 07:19:30;;;;;;;60.10;34.88;;;5.60;99.90;;;;;;5097504;28;20095;-76
2021/12/04 07:21:56;;;;;;;63.30;33.85;;;5.60;99.90;;;;;;5097868;28;20032;-79
2021/12/04 07:24:23;;;;;;;68.82;37.90;;;5.60;99.90;;;;;;5099036;28;20024;-79
2021/12/04 07:26:48;;;;;;;53.75;31.73;;;5.60;99.90;;;;;;5098298;28;20035;-77
2021/12/04 07:29:14;;;;;;;56.20;33.05;;;5.50;99.90;;;;;;5107160;28;20070;-78
2021/12/04 07:31:40;;;;;;;59.45;34.33;;;5.50;99.90;;;;;;5093971;28;20307;-78
2021/12/04 07:34:06;;;;;;;57.05;33.13;;;5.50;99.90;;;;;;5079267;28;20024;-78
2021/12/04 07:36:32;;;;;;;56.10;33.55;;;5.60;99.90;;;;;;5102531;28;20026;-81
2021/12/04 07:39:01;;;;;;;53.80;32.83;;;5.60;99.90;;;;;;5092268;28;20031;-82
2021/12/04 07:41:28;;;;;;;52.25;33.38;;;5.60;99.90;;;;;;5101018;28;20016;-80
2021/12/04 07:43:54;;;;;;;57.65;33.75;;;5.50;99.90;;;;;;5098394;28;20039;-79
2021/12/04 07:46:20;;;;;;;64.47;35.60;;;5.50;99.90;;;;;;5087696;28;20024;-81
2021/12/04 07:48:46;;;;;;;54.05;33.63;;;5.50;99.90;;;;;;5106904;28;20031;-80
2021/12/04 07:51:13;;;;;;;56.70;34.03;;;5.50;99.90;;;;;;5103930;28;20024;-78
2021/12/04 07:53:39;;;;;;;53.25;33.42;;;5.50;99.90;;;;;;5089598;28;20028;-80
2021/12/04 07:58:35;;;;;;;55.58;33.47;;;5.50;99.90;;;;;;5056688;28;20053;-83
2021/12/04 08:01:01;;;;;;;58.50;33.58;;;5.60;99.90;;;;;;5056388;28;20056;-82
2021/12/04 08:03:26;;;;;;;60.05;32.83;;;5.60;99.90;;;;;;5057295;28;20078;-82
2021/12/04 08:05:52;;;;;;;58.03;33.13;;;5.60;99.90;;;;;;5057838;28;20056;-84
2021/12/04 08:08:18;;;;;;;63.20;33.67;;;5.60;99.90;;;;;;5038497;28;20026;-80
2021/12/04 08:10:44;;;;;;;58.08;33.20;;;5.60;99.90;;;;;;5043412;28;20037;-80
2021/12/04 08:13:09;;;;;;;61.78;34.80;;;5.50;99.90;;;;;;5023679;28;20646;-79
2021/12/04 08:15:37;;;;;;;54.53;32.13;;;5.50;99.90;;;;;;5040351;28;20082;-81
2021/12/04 08:18:04;;;;;;;58.15;32.92;;;5.60;99.90;;;;;;5023597;28;20386;-81
2021/12/04 08:20:30;;;;;;;56.05;32.53;;;5.60;99.90;;;;;;5022825;28;20113;-81
2021/12/04 08:22:56;;;;;;;56.55;33.75;;;5.60;99.90;;;;;;5021998;28;20042;-80
2021/12/04 08:25:23;;;;;;;54.67;31.92;;;5.50;99.90;;;;;;5039822;28;20017;-83
2021/12/04 08:27:49;;;;;;;61.35;34.92;;;5.50;99.90;;;;;;5022570;28;20029;-79
2021/12/04 08:30:25;;;;;;;51.25;29.25;;;5.50;99.90;;;;;;5020801;28;20029;-78
2021/12/04 08:32:52;;;;;;;56.40;31.67;;;5.60;99.90;;;;;;5041031;28;20083;-80
2021/12/04 08:35:19;;;;;;;54.05;32.08;;;5.60;99.90;;;;;;5041263;28;20017;-81
2021/12/04 08:37:46;;;;;;;67.30;33.45;;;5.70;99.90;;;;;;5021322;28;20390;-80
2021/12/04 08:40:15;;;;;;;55.22;31.48;;;5.80;99.90;;;;;;5049162;28;20028;-79
2021/12/04 08:42:43;;;;;;;61.80;33.72;;;5.90;99.90;;;;;;5042126;28;20034;-81
2021/12/04 08:45:09;;;;;;;90.43;40.33;;;5.90;99.90;;;;;;5040071;28;20091;-82
2021/12/04 08:47:37;;;;;;;102.22;49.17;;;6.00;99.90;;;;;;5041292;28;20079;-79
2021/12/04 08:50:04;;;;;;;72.18;36.28;;;6.10;99.90;;;;;;5052420;28;20021;-80
2021/12/04 08:52:40;;;;;;;94.20;44.33;;;6.20;99.90;;;;;;5035004;28;20013;-79
2021/12/04 08:55:07;;;;;;;62.85;33.22;;;6.30;99.90;;;;;;5054333;28;20037;-79
2021/12/04 08:57:33;;;;;;;68.35;36.13;;;6.40;99.90;;;;;;5046834;28;20042;-79
2021/12/04 08:59:58;;;;;;;65.07;32.97;;;6.40;99.90;;;;;;5039252;28;20049;-81
2021/12/04 09:02:24;;;;;;;60.50;31.42;;;6.50;99.90;;;;;;5022488;28;20116;-80
2021/12/04 09:04:51;;;;;;;50.97;27.83;;;6.50;99.90;;;;;;5038747;28;20029;-79
2021/12/04 09:07:19;;;;;;;50.10;28.13;;;6.30;99.90;;;;;;5038395;28;20036;-78
2021/12/04 09:09:46;;;;;;;57.08;30.80;;;6.30;99.90;;;;;;5041566;28;20022;-79
2021/12/04 09:12:13;;;;;;;46.55;27.55;;;6.30;99.90;;;;;;5042633;28;20026;-80
2021/12/04 09:14:43;;;;;;;49.65;27.55;;;6.30;99.90;;;;;;5042173;28;20056;-79
2021/12/04 09:17:12;;;;;;;56.33;30.90;;;6.30;99.90;;;;;;5043054;28;20022;-79
2021/12/04 09:19:37;;;;;;;51.28;28.77;;;6.20;99.90;;;;;;5028628;28;20025;-81
2021/12/04 09:22:07;;;;;;;55.10;28.75;;;6.20;99.90;;;;;;5043604;28;20124;-79
2021/12/04 09:24:41;;;;;;;49.50;28.42;;;6.20;99.90;;;;;;5028696;28;20480;-81
2021/12/04 09:27:34;;;;;;;49.95;26.77;;;6.20;99.90;;;;;;5024093;28;20478;-81
2021/12/04 09:35:32;;;;;;;57.78;29.98;;;6.10;99.90;;;;;;5040230;28;20112;-80
2021/12/04 10:02:42;;;;;;;48.90;26.90;;;6.10;99.90;;;;;;5054646;28;20299;-79
2021/12/04 10:05:46;;;;;;;45.47;28.25;;;6.10;99.90;;;;;;5035731;28;20029;-80
2021/12/04 10:11:39;;;;;;;49.45;27.50;;;6.00;99.90;;;;;;5044196;28;20060;-80
2021/12/04 10:17:02;;;;;;;48.78;28.30;;;6.10;99.90;;;;;;5040802;28;20052;-79
2021/12/04 10:19:56;;;;;;;52.17;28.65;;;6.20;99.90;;;;;;5041053;28;20044;-79
2021/12/04 10:33:18;;;;;;;49.77;28.60;;;6.40;99.90;;;;;;5054449;28;20025;-82
2021/12/04 10:35:45;;;;;;;45.00;27.45;;;6.40;99.90;;;;;;5030554;28;20025;-80
2021/12/04 10:38:23;;;;;;;45.80;27.67;;;6.50;99.90;;;;;;5043194;28;20028;-80
2021/12/04 10:40:50;;;;;;;43.78;26.88;;;6.50;99.90;;;;;;5047956;28;20032;-81
2021/12/04 10:43:28;;;;;;;44.08;26.77;;;6.50;99.90;;;;;;5049454;28;20017;-81
2021/12/04 10:46:16;;;;;;;50.60;28.60;;;6.50;99.90;;;;;;5054129;28;20021;-78
2021/12/04 10:49:03;;;;;;;50.33;28.58;;;6.50;99.90;;;;;;5050869;28;20021;-80
2021/12/04 10:51:45;;;;;;;52.30;28.55;;;6.40;99.90;;;;;;5052630;28;20024;-80
2021/12/04 10:54:25;;;;;;;47.50;28.08;;;6.50;99.90;;;;;;5032864;28;20021;-81
2021/12/04 10:59:42;;;;;;;49.30;28.50;;;6.50;99.90;;;;;;5058052;28;20052;-79
2021/12/04 11:18:44;;;;;;;45.00;27.10;;;6.50;99.90;;;;;;5042916;28;20386;-82
2021/12/04 11:42:43;;;;;;;39.65;24.25;;;6.40;99.90;;;;;;5045032;28;20030;-79
2021/12/04 11:45:27;;;;;;;39.50;24.13;;;6.40;99.90;;;;;;5046307;28;20030;-81
2021/12/04 11:48:00;;;;;;;27.83;17.70;;;6.40;99.90;;;;;;5025620;28;20087;-79
2021/12/04 11:50:29;;;;;;;40.33;22.83;;;6.30;99.90;;;;;;5026585;28;20279;-79
2021/12/04 11:53:04;;;;;;;39.78;22.75;;;6.30;99.90;;;;;;5041869;28;20022;-78
2021/12/04 11:55:35;;;;;;;46.72;25.63;;;6.40;99.90;;;;;;5040985;28;20064;-79
2021/12/04 11:58:01;;;;;;;48.17;25.38;;;6.50;99.90;;;;;;5042005;28;20052;-78
2021/12/04 12:00:31;;;;;;;43.63;24.73;;;6.60;99.90;;;;;;5048771;28;20033;-80
2021/12/04 12:03:12;;;;;;;41.28;23.25;;;6.60;99.90;;;;;;5042807;28;20021;-80
2021/12/04 12:05:52;;;;;;;40.03;23.70;;;6.60;99.90;;;;;;5042349;28;20083;-79
2021/12/04 12:08:28;;;;;;;39.35;22.52;;;6.60;99.90;;;;;;5041793;28;20026;-79
2021/12/04 12:11:00;;;;;;;42.72;23.58;;;6.60;99.90;;;;;;5042217;28;20013;-78
2021/12/04 12:13:31;;;;;;;43.03;24.70;;;6.60;99.90;;;;;;5042518;28;20355;-80
2021/12/04 12:16:14;;;;;;;41.25;24.02;;;6.60;99.90;;;;;;5041122;28;20458;-79
2021/12/04 12:18:52;;;;;;;37.92;22.60;;;6.60;99.90;;;;;;5043637;28;20112;-78
2021/12/04 12:21:23;;;;;;;37.78;23.23;;;6.60;99.90;;;;;;5023607;28;20033;-81
2021/12/04 12:32:45;;;;;;;34.45;20.67;;;6.60;99.90;;;;;;5044590;28;20104;-81
2021/12/04 12:38:17;;;;;;;35.25;20.92;;;6.60;99.90;;;;;;5043521;28;20040;-79
2021/12/04 12:40:56;;;;;;;31.90;19.13;;;6.60;99.90;;;;;;5054981;28;20010;-79
2021/12/04 12:43:22;;;;;;;32.90;19.92;;;6.60;99.90;;;;;;5057083;28;20033;-79
2021/12/04 12:45:56;;;;;;;31.52;18.85;;;6.60;99.90;;;;;;5055861;28;20043;-80
2021/12/04 12:48:22;;;;;;;33.42;20.13;;;6.60;99.90;;;;;;5045137;28;20022;-80
2021/12/04 12:50:48;;;;;;;28.98;19.10;;;6.60;99.90;;;;;;5046234;28;20085;-79
2021/12/04 12:53:26;;;;;;;26.73;16.00;;;6.60;99.90;;;;;;5027078;28;20022;-79
2021/12/04 12:56:02;;;;;;;23.27;15.68;;;6.60;99.90;;;;;;5026604;28;20026;-79
2021/12/04 12:58:37;;;;;;;25.63;16.27;;;6.50;99.90;;;;;;5045974;28;20033;-81
2021/12/04 13:12:41;;;;;;;25.00;15.88;;;6.40;99.90;;;;;;5042857;28;20029;-80
2021/12/04 13:15:07;;;;;;;26.10;17.00;;;6.30;99.90;;;;;;5026355;28;20017;-80
2021/12/04 13:17:33;;;;;;;24.58;16.42;;;6.40;99.90;;;;;;5026598;28;20049;-80
2021/12/04 13:19:59;;;;;;;24.67;16.65;;;6.30;99.90;;;;;;5009870;28;20062;-79
2021/12/04 13:22:31;;;;;;;28.98;18.48;;;6.30;99.90;;;;;;5025922;28;20072;-81
2021/12/04 13:25:00;;;;;;;33.00;20.63;;;6.30;99.90;;;;;;5026755;28;20041;-80
2021/12/04 13:29:59;;;;;;;45.28;27.85;;;6.30;99.90;;;;;;5027692;28;20387;-79
2021/12/04 13:32:36;;;;;;;36.92;23.48;;;6.20;99.90;;;;;;5028001;28;20038;-79
2021/12/04 13:35:04;;;;;;;49.20;27.70;;;6.20;99.90;;;;;;5013435;28;20073;-79
2021/12/04 13:37:30;;;;;;;37.53;22.77;;;6.20;99.90;;;;;;5031684;28;20093;-79
2021/12/04 13:40:00;;;;;;;35.08;21.55;;;6.10;99.90;;;;;;5032873;28;20026;-80
2021/12/04 13:42:25;;;;;;;32.47;20.73;;;6.20;99.90;;;;;;5029306;28;20022;-80
2021/12/04 13:45:02;;;;;;;30.80;20.42;;;6.30;99.90;;;;;;5009789;28;20026;-80
2021/12/04 13:47:28;;;;;;;31.70;20.33;;;6.00;99.90;;;;;;5024785;28;20036;-80
2021/12/04 13:49:54;;;;;;;38.58;22.00;;;6.30;99.90;;;;;;5031700;28;20049;-81
2021/12/04 13:52:20;;;;;;;33.20;21.52;;;6.20;99.90;;;;;;5009991;28;20068;-80
2021/12/04 13:54:50;;;;;;;32.97;21.77;;;6.20;99.90;;;;;;5025369;28;20018;-79
2021/12/04 13:57:16;;;;;;;44.15;21.95;;;6.10;99.90;;;;;;5027828;28;20514;-82
2021/12/04 13:59:43;;;;;;;35.53;22.75;;;6.20;99.90;;;;;;5015422;28;20032;-78
2021/12/04 14:02:23;;;;;;;42.35;24.67;;;6.10;99.90;;;;;;5020163;28;20034;-79
2021/12/04 14:05:02;;;;;;;40.70;23.35;;;6.10;99.90;;;;;;5011789;28;20428;-80
2021/12/04 14:07:28;;;;;;;38.30;22.15;;;6.20;99.90;;;;;;5031762;28;20032;-80
2021/12/04 14:09:54;;;;;;;38.00;23.77;;;6.10;99.90;;;;;;5035882;28;20021;-79
2021/12/04 14:12:20;;;;;;;37.28;21.60;;;6.10;99.90;;;;;;5037048;28;20033;-78
2021/12/04 14:14:46;;;;;;;34.15;20.73;;;6.10;99.90;;;;;;5035453;28;20475;-80
2021/12/04 14:17:15;;;;;;;37.95;23.00;;;6.00;99.90;;;;;;5034123;28;20061;-79
2021/12/04 14:19:43;;;;;;;34.70;22.00;;;6.00;99.90;;;;;;5037606;28;20021;-80
2021/12/04 14:22:08;;;;;;;40.10;22.67;;;6.00;99.90;;;;;;5041937;28;20028;-79
2021/12/04 14:24:41;;;;;;;38.25;22.88;;;6.00;99.90;;;;;;5058660;28;20037;-79
2021/12/04 14:27:09;;;;;;;38.38;22.92;;;5.90;99.90;;;;;;5042083;28;20135;-80
2021/12/04 14:29:42;;;;;;;42.60;23.63;;;5.90;99.90;;;;;;5059454;28;20001;-78
2021/12/04 14:32:09;;;;;;;33.50;21.63;;;5.90;99.90;;;;;;5054273;28;20017;-78
2021/12/04 14:34:36;;;;;;;37.92;21.92;;;5.90;99.90;;;;;;5048056;28;20332;-79
2021/12/04 14:37:12;;;;;;;35.05;20.85;;;5.90;99.90;;;;;;5045107;28;20097;-79
2021/12/04 14:39:45;;;;;;;34.78;21.55;;;6.00;99.90;;;;;;5044023;28;20041;-79
2021/12/04 14:42:11;;;;;;;32.20;20.65;;;5.90;99.90;;;;;;5027765;28;20045;-80
2021/12/04 14:44:36;;;;;;;38.42;20.90;;;5.90;99.90;;;;;;5052027;28;20085;-79
2021/12/04 14:47:06;;;;;;;36.20;21.27;;;5.90;99.90;;;;;;5055079;28;20037;-80
2021/12/04 14:49:32;;;;;;;30.95;19.88;;;5.90;99.90;;;;;;5057378;28;20086;-79
2021/12/04 14:51:58;;;;;;;31.63;19.52;;;5.90;99.90;;;;;;5037685;28;20458;-77
2021/12/04 14:54:30;;;;;;;32.53;20.63;;;5.90;99.90;;;;;;5078020;22;20149;-78
2021/12/04 14:56:56;;;;;;;30.80;18.83;;;5.90;99.90;;;;;;5100648;28;20040;-81
2021/12/04 14:59:22;;;;;;;29.77;17.85;;;5.90;99.90;;;;;;5096549;28;20503;-77
2021/12/04 15:01:48;;;;;;;25.58;17.67;;;6.00;99.90;;;;;;5078307;28;20058;-78
2021/12/04 15:04:13;;;;;;;32.33;18.13;;;5.90;99.90;;;;;;5103554;28;20047;-82
2021/12/04 15:06:40;;;;;;;25.15;16.45;;;5.90;99.90;;;;;;5083078;28;20532;-81
2021/12/04 15:09:09;;;;;;;26.85;16.88;;;5.90;99.90;;;;;;5078310;28;20484;-77
2021/12/04 15:11:39;;;;;;;19.17;13.65;;;5.90;99.90;;;;;;5095998;28;20023;-77
2021/12/04 15:14:09;;;;;;;24.08;14.85;;;5.90;99.90;;;;;;5096947;28;20069;-76
2021/12/04 15:16:40;;;;;;;24.70;15.18;;;5.90;99.90;;;;;;5077683;28;20024;-77
2021/12/04 15:19:17;;;;;;;23.25;14.85;;;5.80;99.90;;;;;;5096443;28;20031;-75
2021/12/04 15:21:49;;;;;;;22.45;14.63;;;5.80;99.90;;;;;;5096984;28;20027;-76
2021/12/04 15:24:22;;;;;;;31.73;16.60;;;5.80;99.90;;;;;;5095801;28;20028;-77
2021/12/04 15:26:50;;;;;;;29.35;16.88;;;5.80;99.90;;;;;;5094499;28;20145;-78
2021/12/04 15:29:19;;;;;;;31.20;17.35;;;5.80;99.90;;;;;;5095411;28;20019;-76
2021/12/04 15:31:45;;;;;;;31.73;18.30;;;5.70;99.90;;;;;;5094766;28;20040;-77
2021/12/04 15:34:11;;;;;;;37.80;19.52;;;5.70;99.90;;;;;;5080071;28;20079;-76
2021/12/04 15:36:39;;;;;;;32.40;19.02;;;5.80;99.90;;;;;;5096530;28;20024;-78
2021/12/04 15:39:15;;;;;;;42.67;21.27;;;5.70;99.90;;;;;;5094437;28;20032;-77